Aérodrome :
LOGIN :

S'inscrire | Disclaimer

   EN    FR    IT 

 










Légende :    VFR   VFR Marginal   IFR   IFR Intensif   IFR Très Intensif
Visi : 
Plafond : 
>= 8 km
>= 3000ft
5 à 8 km
1000 à 3000 ft
1500m à 5 km
500 à 1000 ft
800 à 1500m
200 à 500 ft
< 800m
< 200 ft
Symboles :   Orages  Brouillard  Fortes neiges  Fortes précipitations  Vent > 20 kt
SIGMETs :   Divers  Orages  Givrage  Turbulence  Onde Orograph.  Cendres Volcan.






- Altitude de l'aérodrome : 1090 ft
- Code IATA : CFE


LFLC - Clermont-Ferrand Auvergne

DERNIER METAR :
  • 041000Z AUTO 02007KT 320V070 9999 SCT033 SCT041 BKN049 20/12 Q1018 NOSIG

METARs EXPIRÉS :
  • 040930Z AUTO VRB04KT 9999 FEW026 SCT033 18/11 Q1019 NOSIG
  • 040900Z AUTO 05006KT 020V090 9999 SCT022 SCT032 18/11 Q1019 NOSIG
  • 040830Z AUTO 01006KT 320V050 9999 SCT021 BKN028 BKN034 17/12 Q1019 NOSIG
  • 040800Z AUTO 02005KT 330V080 9999 FEW020 BKN028 BKN033 16/11 Q1018 NOSIG
  • 040730Z AUTO 02005KT 330V060 9999 BKN019 OVC027 16/11 Q1018 NOSIG

TAF TAF LFLC
Valide du 04 à 09h jusqu'au 05 à 09h UTC


040800Z 0409/0509 36010KT 9999 BKN035
BECMG 0410/0412 NSC
BECMG 0419/0421 VRB02KT
ATIS : +33 4 73 62 74 38



MET'MAP, la Météo Aéronautique d'un coup d'oeil ! - Copyright ORBIFLY Décembre 2007 - Disclaimer

ORBIFLY MET'MAP TEAM :

Programmation & Développement : Alexandra Zaïnal
Sur une idée originale de : Baudouin d'Aumeries
Assistance à la programmation : Marc-Olivier Méhu
Soutien technique & logistique : Manuel Goepfert

Contact : metmap@orbifly.com




SOURCES & CREDITS :

   NOAA